createdAt,value
2019-05-22T00:00:52.424Z,0.00
2019-05-22T00:01:52.437Z,0.00
2019-05-22T00:02:52.405Z,0.00
2019-05-22T00:03:52.383Z,0.00
2019-05-22T00:04:52.373Z,0.00
2019-05-22T00:05:52.385Z,0.00
2019-05-22T00:06:52.360Z,0.00
2019-05-22T00:07:52.395Z,0.00
2019-05-22T00:08:52.345Z,0.00
2019-05-22T00:09:52.335Z,0.00
2019-05-22T00:10:52.341Z,0.00
2019-05-22T00:11:52.316Z,0.00
2019-05-22T00:12:52.283Z,0.00
2019-05-22T00:13:52.297Z,0.00
2019-05-22T00:14:52.260Z,0.00
2019-05-22T00:15:52.289Z,0.00
2019-05-22T00:16:52.254Z,0.00
2019-05-22T00:17:52.226Z,0.00
2019-05-22T00:18:52.222Z,0.00
2019-05-22T00:19:52.223Z,0.00
2019-05-22T00:20:52.227Z,0.00
2019-05-22T00:21:52.196Z,0.00
2019-05-22T00:22:52.190Z,0.00
2019-05-22T00:23:52.161Z,0.00
2019-05-22T00:24:52.157Z,0.00
2019-05-22T00:25:52.184Z,0.00
2019-05-22T00:26:52.141Z,0.00
2019-05-22T00:27:52.121Z,0.00
2019-05-22T00:28:52.108Z,0.00
2019-05-22T00:29:52.104Z,0.00
2019-05-22T00:30:52.105Z,0.00
2019-05-22T00:31:52.074Z,0.00
2019-05-22T00:32:52.065Z,0.00
2019-05-22T00:33:52.060Z,0.00
2019-05-22T00:34:52.053Z,0.00
2019-05-22T00:35:52.056Z,0.00
2019-05-22T00:36:52.027Z,0.00
2019-05-22T00:37:52.013Z,0.00
2019-05-22T00:38:52.011Z,0.00
2019-05-22T00:39:51.992Z,0.00
2019-05-22T00:40:51.995Z,0.00
2019-05-22T00:41:51.971Z,0.00
2019-05-22T00:43:03.462Z,0.00
2019-05-22T00:43:52.951Z,0.00
2019-05-22T00:44:51.931Z,0.00
2019-05-22T00:45:51.944Z,0.00
2019-05-22T00:46:51.910Z,0.00
2019-05-22T00:47:51.923Z,0.00
2019-05-22T00:48:51.900Z,0.00
2019-05-22T00:49:51.878Z,0.00
2019-05-22T00:50:51.883Z,0.00
2019-05-22T00:51:51.878Z,0.00
2019-05-22T00:52:51.853Z,0.00
2019-05-22T00:53:51.847Z,0.00
2019-05-22T00:54:51.842Z,0.00
2019-05-22T00:55:51.828Z,0.00
2019-05-22T00:56:51.812Z,0.00
2019-05-22T00:57:51.791Z,0.00
2019-05-22T00:58:51.788Z,0.00
2019-05-22T00:59:51.779Z,0.00
2019-05-22T01:00:51.884Z,0.00
2019-05-22T01:01:51.754Z,0.00
2019-05-22T01:02:51.738Z,0.00
2019-05-22T01:03:51.731Z,0.00
2019-05-22T01:04:51.720Z,0.00
2019-05-22T01:05:51.715Z,0.00
2019-05-22T01:06:51.717Z,0.00
2019-05-22T01:07:51.687Z,0.00
2019-05-22T01:08:51.674Z,0.00
2019-05-22T01:09:51.700Z,0.00
2019-05-22T01:10:51.669Z,0.00
2019-05-22T01:11:51.657Z,0.00
2019-05-22T01:12:51.648Z,0.00
2019-05-22T01:13:51.627Z,0.00
2019-05-22T01:14:51.617Z,0.00
2019-05-22T01:15:51.600Z,0.00
2019-05-22T01:16:51.600Z,0.00
2019-05-22T01:17:51.619Z,0.00
2019-05-22T01:18:51.563Z,0.00
2019-05-22T01:19:51.593Z,0.00
2019-05-22T01:20:51.557Z,0.00
2019-05-22T01:21:51.556Z,0.00
2019-05-22T01:22:51.523Z,0.00
2019-05-22T01:23:51.542Z,0.00
2019-05-22T01:24:51.511Z,0.00
2019-05-22T01:25:51.493Z,0.00
2019-05-22T01:26:51.497Z,0.00
2019-05-22T01:27:51.486Z,0.00
2019-05-22T01:28:51.478Z,0.00
2019-05-22T01:29:51.441Z,0.00
2019-05-22T01:30:51.439Z,0.00
2019-05-22T01:31:51.444Z,0.00
2019-05-22T01:32:51.419Z,0.00
2019-05-22T01:33:51.433Z,0.00
2019-05-22T01:34:51.401Z,0.00
2019-05-22T01:35:51.380Z,0.00
2019-05-22T01:36:51.532Z,0.00
2019-05-22T01:37:51.380Z,0.00
2019-05-22T01:38:51.349Z,0.00
2019-05-22T01:39:51.334Z,0.00
2019-05-22T01:40:51.322Z,0.00
2019-05-22T01:41:51.334Z,0.00
2019-05-22T01:42:51.311Z,0.00
2019-05-22T01:43:51.304Z,0.00
2019-05-22T01:45:04.602Z,0.00
2019-05-22T01:45:52.302Z,0.00
2019-05-22T01:46:51.297Z,0.00
2019-05-22T01:47:51.249Z,0.00
2019-05-22T01:48:51.242Z,0.00
2019-05-22T01:49:51.229Z,0.00
2019-05-22T01:50:51.260Z,0.00
2019-05-22T01:51:51.207Z,0.00
2019-05-22T01:52:51.229Z,0.00
2019-05-22T01:53:51.188Z,0.00
2019-05-22T01:54:51.181Z,0.00
2019-05-22T01:55:51.196Z,0.00
2019-05-22T01:56:51.188Z,0.00
2019-05-22T01:57:51.156Z,0.00
2019-05-22T01:58:51.132Z,0.00
2019-05-22T01:59:51.116Z,0.00
2019-05-22T02:00:51.134Z,0.00
2019-05-22T02:01:51.096Z,0.00
2019-05-22T02:02:51.100Z,0.00
2019-05-22T02:03:51.087Z,0.00
2019-05-22T02:04:51.077Z,0.00
2019-05-22T02:05:51.078Z,0.00
2019-05-22T02:06:51.053Z,0.00
2019-05-22T02:07:51.034Z,0.00
2019-05-22T02:08:51.031Z,0.00
2019-05-22T02:09:51.036Z,0.00
2019-05-22T02:10:51.020Z,0.00
2019-05-22T02:11:50.994Z,0.00
2019-05-22T02:12:50.983Z,0.00
2019-05-22T02:13:50.963Z,0.00
2019-05-22T02:14:50.966Z,0.00
2019-05-22T02:15:50.971Z,0.00
2019-05-22T02:16:56.573Z,0.00
2019-05-22T02:17:51.936Z,0.00
2019-05-22T02:18:50.923Z,0.00
2019-05-22T02:19:50.932Z,0.00
2019-05-22T02:20:50.910Z,0.00
2019-05-22T02:21:50.899Z,0.00
2019-05-22T02:22:50.877Z,0.00
2019-05-22T02:23:50.869Z,0.00
2019-05-22T02:24:50.867Z,0.00
2019-05-22T02:25:50.840Z,0.00
2019-05-22T02:26:50.846Z,0.00
2019-05-22T02:27:51.119Z,0.00
2019-05-22T02:28:50.825Z,0.00
2019-05-22T02:29:50.798Z,0.00
2019-05-22T02:30:50.791Z,0.00
2019-05-22T02:31:54.996Z,0.00
2019-05-22T02:32:50.790Z,0.00
2019-05-22T02:33:50.751Z,0.00
2019-05-22T02:34:50.753Z,0.00
2019-05-22T02:35:50.729Z,0.00
2019-05-22T02:36:50.739Z,0.00
2019-05-22T02:37:50.715Z,0.00
2019-05-22T02:38:50.701Z,0.00
2019-05-22T02:39:50.688Z,0.00
2019-05-22T02:40:50.670Z,0.00
2019-05-22T02:41:50.690Z,0.00
2019-05-22T02:42:50.682Z,0.00
2019-05-22T02:43:50.665Z,0.00
2019-05-22T02:44:50.639Z,0.00
2019-05-22T02:45:50.619Z,0.00
2019-05-22T02:46:50.636Z,0.00
2019-05-22T02:47:50.604Z,0.00
2019-05-22T02:48:50.594Z,0.00
2019-05-22T02:49:50.612Z,0.00
2019-05-22T02:50:50.569Z,0.00
2019-05-22T02:51:50.593Z,0.00
2019-05-22T02:52:50.540Z,0.00
2019-05-22T02:53:50.534Z,0.00
2019-05-22T02:54:50.524Z,0.00
2019-05-22T02:55:50.537Z,0.00
2019-05-22T02:56:50.532Z,0.00
2019-05-22T02:57:50.488Z,0.00
2019-05-22T02:58:50.479Z,0.00
2019-05-22T02:59:50.476Z,0.00
2019-05-22T03:00:50.470Z,0.00
2019-05-22T03:01:50.469Z,0.00
2019-05-22T03:02:50.450Z,0.00
2019-05-22T03:03:50.436Z,0.00
2019-05-22T03:04:50.408Z,0.00
2019-05-22T03:05:50.438Z,0.00
2019-05-22T03:06:50.395Z,0.00
2019-05-22T03:07:50.389Z,0.00
2019-05-22T03:08:50.383Z,0.00
2019-05-22T03:09:50.367Z,0.00
2019-05-22T03:10:50.376Z,0.00
2019-05-22T03:11:50.346Z,0.00
2019-05-22T03:12:50.340Z,0.00
2019-05-22T03:13:50.371Z,0.00
2019-05-22T03:14:50.309Z,0.00
2019-05-22T03:15:50.318Z,0.00
2019-05-22T03:16:50.292Z,0.00
2019-05-22T03:17:50.285Z,0.00
2019-05-22T03:19:07.826Z,0.00
2019-05-22T03:19:51.264Z,0.00
2019-05-22T03:20:50.738Z,0.00
2019-05-22T03:21:50.245Z,0.00
2019-05-22T03:22:50.226Z,0.00
2019-05-22T03:23:50.224Z,0.00
2019-05-22T03:24:50.204Z,0.00
2019-05-22T03:25:50.208Z,0.00
2019-05-22T03:26:50.177Z,0.00
2019-05-22T03:27:50.183Z,0.00
2019-05-22T03:28:50.185Z,0.00
2019-05-22T03:29:50.140Z,0.00
2019-05-22T03:30:50.168Z,0.00
2019-05-22T03:31:50.128Z,0.00
2019-05-22T03:32:50.126Z,0.00
2019-05-22T03:33:50.121Z,0.00
2019-05-22T03:34:50.095Z,0.00
2019-05-22T03:35:50.105Z,0.00
2019-05-22T03:36:50.099Z,0.00
2019-05-22T03:37:50.058Z,0.00
2019-05-22T03:38:50.053Z,0.00
2019-05-22T03:39:50.039Z,0.00
2019-05-22T03:40:50.061Z,0.00
2019-05-22T03:41:50.032Z,0.00
2019-05-22T03:42:50.016Z,0.00
2019-05-22T03:43:49.992Z,0.00
2019-05-22T03:44:49.983Z,0.00
2019-05-22T03:45:50.005Z,0.00
2019-05-22T03:46:49.988Z,0.00
2019-05-22T03:47:49.958Z,0.00
2019-05-22T03:48:49.963Z,0.00
2019-05-22T03:49:49.928Z,0.00
2019-05-22T03:50:49.953Z,0.00
2019-05-22T03:51:49.956Z,0.00
2019-05-22T03:52:49.907Z,0.00
2019-05-22T03:53:49.895Z,0.00
2019-05-22T03:54:49.895Z,0.00
2019-05-22T03:55:49.885Z,0.00
2019-05-22T03:56:49.866Z,5.62
2019-05-22T03:57:49.843Z,5.62
2019-05-22T03:58:49.833Z,5.62
2019-05-22T03:59:49.831Z,5.62
2019-05-22T04:00:49.842Z,5.62
2019-05-22T04:01:49.824Z,5.62
2019-05-22T04:02:49.790Z,0.00
2019-05-22T04:03:49.784Z,5.62
2019-05-22T04:04:49.782Z,5.62
2019-05-22T04:05:49.771Z,5.62
2019-05-22T04:06:49.756Z,5.62
2019-05-22T04:07:49.758Z,5.62
2019-05-22T04:08:49.728Z,5.62
2019-05-22T04:09:49.737Z,5.62
2019-05-22T04:10:49.718Z,5.62
2019-05-22T04:11:49.720Z,5.62
2019-05-22T04:12:49.689Z,5.62
2019-05-22T04:13:49.677Z,5.62
2019-05-22T04:14:49.665Z,5.62
2019-05-22T04:15:49.676Z,5.62
2019-05-22T04:16:49.652Z,5.62
2019-05-22T04:17:49.639Z,5.62
2019-05-22T04:18:49.625Z,5.62
2019-05-22T04:19:51.692Z,5.62
2019-05-22T04:20:49.617Z,5.62
2019-05-22T04:21:49.584Z,5.62
2019-05-22T04:22:49.600Z,5.62
2019-05-22T04:23:49.572Z,5.62
2019-05-22T04:24:49.562Z,5.62
2019-05-22T04:25:53.169Z,5.62
2019-05-22T04:26:49.536Z,5.62
2019-05-22T04:27:49.565Z,5.62
2019-05-22T04:28:49.531Z,5.62
2019-05-22T04:29:49.514Z,5.62
2019-05-22T04:30:49.513Z,5.62
2019-05-22T04:31:49.488Z,5.62
2019-05-22T04:32:49.470Z,5.62
2019-05-22T04:33:49.473Z,5.62
2019-05-22T04:34:49.456Z,5.62
2019-05-22T04:35:49.436Z,5.62
2019-05-22T04:36:49.455Z,5.62
2019-05-22T04:37:49.491Z,5.62
2019-05-22T04:38:49.432Z,5.62
2019-05-22T04:39:49.427Z,11.25
2019-05-22T04:40:49.421Z,11.25
2019-05-22T04:41:49.368Z,11.25
2019-05-22T04:42:49.360Z,11.25
2019-05-22T04:43:49.373Z,11.25
2019-05-22T04:44:49.343Z,11.25
2019-05-22T04:45:49.344Z,11.25
2019-05-22T04:46:49.332Z,11.25
2019-05-22T04:47:49.359Z,11.25
2019-05-22T04:48:49.290Z,11.25
2019-05-22T04:50:06.250Z,16.88
2019-05-22T04:50:50.270Z,11.25
2019-05-22T04:51:49.295Z,11.25
2019-05-22T04:52:49.243Z,11.25
2019-05-22T04:53:49.244Z,11.25
2019-05-22T04:54:52.452Z,11.25
2019-05-22T04:55:49.241Z,11.25
2019-05-22T04:56:49.208Z,11.25
2019-05-22T04:57:49.206Z,16.88
2019-05-22T04:58:49.190Z,16.88
2019-05-22T04:59:49.177Z,16.88
2019-05-22T05:00:49.241Z,16.88
2019-05-22T05:01:49.158Z,16.88
2019-05-22T05:02:49.160Z,16.88
2019-05-22T05:03:49.149Z,16.88
2019-05-22T05:04:49.127Z,22.50
2019-05-22T05:05:49.128Z,28.12
2019-05-22T05:06:49.109Z,28.12
2019-05-22T05:07:49.087Z,28.12
2019-05-22T05:08:49.094Z,28.12
2019-05-22T05:09:49.068Z,28.12
2019-05-22T05:10:49.055Z,28.12
2019-05-22T05:11:49.063Z,28.12
2019-05-22T05:12:49.032Z,28.12
2019-05-22T05:13:49.033Z,28.12
2019-05-22T05:14:49.019Z,28.12
2019-05-22T05:15:49.017Z,28.12
2019-05-22T05:16:49.036Z,28.12
2019-05-22T05:17:49.005Z,28.12
2019-05-22T05:18:48.968Z,28.12
2019-05-22T05:19:48.956Z,28.12
2019-05-22T05:20:48.965Z,28.12
2019-05-22T05:21:48.940Z,28.12
2019-05-22T05:22:48.937Z,28.12
2019-05-22T05:23:48.913Z,28.12
2019-05-22T05:24:48.923Z,28.12
2019-05-22T05:25:48.893Z,28.12
2019-05-22T05:26:48.882Z,28.12
2019-05-22T05:27:48.874Z,28.12
2019-05-22T05:28:48.873Z,28.12
2019-05-22T05:29:48.919Z,28.12
2019-05-22T05:30:48.837Z,28.12
2019-05-22T05:31:48.837Z,33.75
2019-05-22T05:32:48.846Z,33.75
2019-05-22T05:33:48.804Z,33.75
2019-05-22T05:34:48.812Z,33.75
2019-05-22T05:35:48.784Z,33.75
2019-05-22T05:36:48.799Z,33.75
2019-05-22T05:37:48.776Z,33.75
2019-05-22T05:38:48.768Z,39.38
2019-05-22T05:39:48.742Z,39.38
2019-05-22T05:40:48.737Z,39.38
2019-05-22T05:41:48.722Z,39.38
2019-05-22T05:42:48.752Z,39.38
2019-05-22T05:43:48.723Z,39.38
2019-05-22T05:44:48.726Z,39.38
2019-05-22T05:45:48.681Z,39.38
2019-05-22T05:46:48.662Z,39.38
2019-05-22T05:47:48.688Z,39.38
2019-05-22T05:48:48.648Z,45.00
2019-05-22T05:49:48.655Z,39.38
2019-05-22T05:50:48.656Z,45.00
2019-05-22T05:51:48.617Z,45.00
2019-05-22T05:52:48.599Z,45.00
2019-05-22T05:53:48.598Z,45.00
2019-05-22T05:54:48.744Z,45.00
2019-05-22T05:55:48.581Z,50.62
2019-05-22T05:56:48.699Z,50.62
2019-05-22T05:57:48.560Z,56.25
2019-05-22T05:58:48.544Z,56.25
2019-05-22T05:59:48.544Z,56.25
2019-05-22T06:00:48.547Z,61.88
2019-05-22T06:01:48.560Z,56.25
2019-05-22T06:02:56.640Z,56.25
2019-05-22T06:03:49.480Z,56.25
2019-05-22T06:04:48.472Z,56.25
2019-05-22T06:05:48.488Z,50.62
2019-05-22T06:06:48.466Z,50.62
2019-05-22T06:07:48.477Z,50.62
2019-05-22T06:08:48.430Z,50.62
2019-05-22T06:09:48.472Z,50.62
2019-05-22T06:10:48.402Z,50.62
2019-05-22T06:11:48.441Z,50.62
2019-05-22T06:12:48.402Z,50.62
2019-05-22T06:13:48.376Z,56.25
2019-05-22T06:14:48.367Z,56.25
2019-05-22T06:15:48.355Z,56.25
2019-05-22T06:16:48.341Z,56.25
2019-05-22T06:17:48.363Z,56.25
2019-05-22T06:18:48.330Z,56.25
2019-05-22T06:19:48.317Z,56.25
2019-05-22T06:21:02.735Z,61.88
2019-05-22T06:21:49.301Z,56.25
2019-05-22T06:22:48.321Z,56.25
2019-05-22T06:23:48.299Z,61.88
2019-05-22T06:24:48.261Z,61.88
2019-05-22T06:25:48.309Z,61.88
2019-05-22T06:26:48.237Z,61.88
2019-05-22T06:27:48.241Z,67.50
2019-05-22T06:28:48.214Z,67.50
2019-05-22T06:29:48.259Z,67.50
2019-05-22T06:30:48.195Z,67.50
2019-05-22T06:31:48.202Z,73.12
2019-05-22T06:32:48.220Z,78.75
2019-05-22T06:33:48.181Z,78.75
2019-05-22T06:34:48.154Z,84.38
2019-05-22T06:35:48.177Z,84.38
2019-05-22T06:36:48.138Z,84.38
2019-05-22T06:37:48.115Z,84.38
2019-05-22T06:38:48.123Z,90.00
2019-05-22T06:39:48.113Z,90.00
2019-05-22T06:40:48.106Z,90.00
2019-05-22T06:41:48.074Z,95.62
2019-05-22T06:42:48.065Z,95.62
2019-05-22T06:43:48.059Z,95.62
2019-05-22T06:44:48.065Z,95.62
2019-05-22T06:45:48.050Z,95.62
2019-05-22T06:46:48.047Z,95.62
2019-05-22T06:47:48.012Z,90.00
2019-05-22T06:48:47.999Z,95.62
2019-05-22T06:49:47.989Z,90.00
2019-05-22T06:50:49.393Z,90.00
2019-05-22T06:51:47.985Z,95.62
2019-05-22T06:52:47.984Z,95.62
2019-05-22T06:53:47.991Z,95.62
2019-05-22T06:54:47.939Z,95.62
2019-05-22T06:55:47.922Z,95.62
2019-05-22T06:56:47.917Z,101.25
2019-05-22T06:57:47.929Z,101.25
2019-05-22T06:58:47.952Z,101.25
2019-05-22T06:59:47.891Z,101.25
2019-05-22T07:00:47.872Z,95.62
2019-05-22T07:01:47.883Z,95.62
2019-05-22T07:02:47.855Z,101.25
2019-05-22T07:03:47.835Z,106.88
2019-05-22T07:04:47.851Z,118.12
2019-05-22T07:05:47.821Z,118.12
2019-05-22T07:06:47.805Z,118.12
2019-05-22T07:07:47.793Z,118.12
2019-05-22T07:08:47.837Z,112.50
2019-05-22T07:09:47.794Z,106.88
2019-05-22T07:10:47.795Z,106.88
2019-05-22T07:11:47.749Z,101.25
2019-05-22T07:12:50.446Z,101.25
2019-05-22T07:13:47.727Z,106.88
2019-05-22T07:14:47.753Z,106.88
2019-05-22T07:15:47.719Z,112.50
2019-05-22T07:16:47.707Z,112.50
2019-05-22T07:17:47.691Z,118.12
2019-05-22T07:18:47.676Z,129.38
2019-05-22T07:19:47.669Z,129.38
2019-05-22T07:20:47.671Z,123.75
2019-05-22T07:21:47.645Z,123.75
2019-05-22T07:22:47.658Z,123.75
2019-05-22T07:23:47.625Z,123.75
2019-05-22T07:24:47.609Z,129.38
2019-05-22T07:25:47.657Z,135.00
2019-05-22T07:26:47.599Z,140.62
2019-05-22T07:27:47.580Z,140.62
2019-05-22T07:28:47.561Z,140.62
2019-05-22T07:29:47.564Z,135.00
2019-05-22T07:30:47.561Z,135.00
2019-05-22T07:31:47.554Z,140.62
2019-05-22T07:32:47.522Z,140.62
2019-05-22T07:33:47.538Z,146.25
2019-05-22T07:34:47.500Z,146.25
2019-05-22T07:36:07.817Z,146.25
2019-05-22T07:36:48.485Z,157.50
2019-05-22T07:37:47.483Z,151.88
2019-05-22T07:38:47.462Z,157.50
2019-05-22T07:39:47.446Z,157.50
2019-05-22T07:40:50.225Z,163.12
2019-05-22T07:41:47.421Z,163.12
2019-05-22T07:42:47.418Z,163.12
2019-05-22T07:43:47.440Z,163.12
2019-05-22T07:44:47.407Z,174.38
2019-05-22T07:45:47.397Z,174.38
2019-05-22T07:46:47.369Z,174.38
2019-05-22T07:47:47.397Z,174.38
2019-05-22T07:48:47.362Z,174.38
2019-05-22T07:49:47.352Z,163.12
2019-05-22T07:50:48.944Z,168.75
2019-05-22T07:51:56.066Z,180.00
2019-05-22T07:52:48.322Z,202.50
2019-05-22T07:53:47.297Z,196.88
2019-05-22T07:54:47.307Z,196.88
2019-05-22T07:55:47.301Z,191.25
2019-05-22T07:56:47.267Z,191.25
2019-05-22T07:57:47.254Z,202.50
2019-05-22T07:58:47.255Z,213.75
2019-05-22T07:59:47.231Z,219.38
2019-05-22T08:00:47.244Z,213.75
2019-05-22T08:01:47.212Z,225.00
2019-05-22T08:02:47.200Z,225.00
2019-05-22T08:03:47.205Z,225.00
2019-05-22T08:04:47.178Z,230.62
2019-05-22T08:05:47.167Z,236.25
2019-05-22T08:06:47.171Z,236.25
2019-05-22T08:07:47.344Z,236.25
2019-05-22T08:08:47.157Z,225.00
2019-05-22T08:09:47.129Z,213.75
2019-05-22T08:10:47.110Z,208.12
2019-05-22T08:11:47.112Z,202.50
2019-05-22T08:12:47.090Z,213.75
2019-05-22T08:13:47.083Z,213.75
2019-05-22T08:14:47.075Z,213.75
2019-05-22T08:15:48.081Z,219.38
2019-05-22T08:16:47.069Z,225.00
2019-05-22T08:17:47.051Z,230.62
2019-05-22T08:18:47.021Z,230.62
2019-05-22T08:19:47.031Z,230.62
2019-05-22T08:20:47.016Z,230.62
2019-05-22T08:21:47.027Z,230.62
2019-05-22T08:22:46.988Z,236.25
2019-05-22T08:23:46.978Z,241.88
2019-05-22T08:24:46.958Z,236.25
2019-05-22T08:25:46.981Z,241.88
2019-05-22T08:26:54.289Z,241.88
2019-05-22T08:27:47.931Z,236.25
2019-05-22T08:28:46.920Z,230.62
2019-05-22T08:29:46.966Z,230.62
2019-05-22T08:30:46.911Z,225.00
2019-05-22T08:31:46.934Z,213.75
2019-05-22T08:32:46.877Z,213.75
2019-05-22T08:33:46.863Z,219.38
2019-05-22T08:34:46.854Z,219.38
2019-05-22T08:35:46.836Z,219.38
2019-05-22T08:36:46.845Z,225.00
2019-05-22T08:37:46.823Z,230.62
2019-05-22T08:38:46.810Z,230.62
2019-05-22T08:39:46.800Z,230.62
2019-05-22T08:40:46.792Z,225.00
2019-05-22T08:41:46.801Z,230.62
2019-05-22T08:42:46.771Z,230.62
2019-05-22T08:44:13.719Z,247.50
2019-05-22T08:44:47.738Z,258.75
2019-05-22T08:45:46.731Z,258.75
2019-05-22T08:46:46.747Z,264.38
2019-05-22T08:47:46.711Z,275.62
2019-05-22T08:48:48.762Z,286.88
2019-05-22T08:49:46.690Z,298.12
2019-05-22T08:50:46.676Z,309.38
2019-05-22T08:51:46.694Z,309.38
2019-05-22T08:52:46.656Z,320.62
2019-05-22T08:53:48.589Z,326.25
2019-05-22T08:54:46.698Z,326.25
2019-05-22T08:55:46.627Z,326.25
2019-05-22T08:56:46.622Z,337.50
2019-05-22T08:57:46.618Z,348.75
2019-05-22T08:58:46.590Z,388.12
2019-05-22T08:59:46.592Z,405.00
2019-05-22T09:00:46.576Z,427.50
2019-05-22T09:01:46.558Z,483.75
2019-05-22T09:02:46.568Z,511.88
2019-05-22T09:03:46.588Z,511.88
2019-05-22T09:04:46.527Z,511.88
2019-05-22T09:05:46.530Z,489.38
2019-05-22T09:06:46.527Z,495.00
2019-05-22T09:07:46.508Z,511.88
2019-05-22T09:08:46.488Z,534.38
2019-05-22T09:09:46.483Z,534.38
2019-05-22T09:10:46.457Z,534.38
2019-05-22T09:11:46.465Z,590.62
2019-05-22T09:12:46.625Z,652.50
2019-05-22T09:13:46.439Z,697.50
2019-05-22T09:14:46.421Z,939.38
2019-05-22T09:15:46.405Z,680.62
2019-05-22T09:16:46.425Z,579.38
2019-05-22T09:17:46.415Z,556.88
2019-05-22T09:18:46.375Z,545.62
2019-05-22T09:19:46.368Z,551.25
2019-05-22T09:20:49.335Z,562.50
2019-05-22T09:21:46.342Z,596.25
2019-05-22T09:22:46.350Z,669.38
2019-05-22T09:23:46.428Z,860.62
2019-05-22T09:24:46.328Z,686.25
2019-05-22T09:25:46.300Z,697.50
2019-05-22T09:26:46.315Z,1288.12
2019-05-22T09:27:46.302Z,1170.00
2019-05-22T09:28:46.265Z,860.62
2019-05-22T09:29:46.249Z,933.75
2019-05-22T09:30:46.243Z,776.25
2019-05-22T09:31:46.241Z,731.25
2019-05-22T09:32:47.673Z,680.62
2019-05-22T09:33:46.217Z,641.25
2019-05-22T09:34:46.206Z,624.38
2019-05-22T09:35:46.186Z,607.50
2019-05-22T09:36:46.179Z,562.50
2019-05-22T09:37:46.195Z,528.75
2019-05-22T09:38:46.172Z,511.88
2019-05-22T09:39:46.150Z,500.62
2019-05-22T09:40:46.135Z,511.88
2019-05-22T09:41:46.127Z,540.00
2019-05-22T09:42:46.118Z,556.88
2019-05-22T09:43:46.121Z,568.12
2019-05-22T09:44:46.097Z,590.62
2019-05-22T09:45:46.087Z,630.00
2019-05-22T09:46:46.099Z,669.38
2019-05-22T09:47:46.059Z,753.75
2019-05-22T09:48:46.061Z,714.38
2019-05-22T09:49:46.097Z,742.50
2019-05-22T09:50:46.027Z,804.38
2019-05-22T09:51:46.021Z,787.50
2019-05-22T09:52:56.834Z,663.75
2019-05-22T09:53:47.011Z,646.88
2019-05-22T09:54:45.980Z,568.12
2019-05-22T09:55:47.269Z,495.00
2019-05-22T09:56:45.962Z,466.88
2019-05-22T09:57:45.956Z,472.50
2019-05-22T09:58:45.975Z,646.88
2019-05-22T09:59:45.927Z,658.12
2019-05-22T10:00:45.924Z,697.50
2019-05-22T10:01:45.908Z,630.00
2019-05-22T10:02:45.903Z,596.25
2019-05-22T10:03:45.909Z,708.75
2019-05-22T10:04:45.877Z,1788.75
2019-05-22T10:05:45.879Z,888.75
2019-05-22T10:06:45.860Z,1963.12
2019-05-22T10:07:59.656Z,916.88
2019-05-22T10:08:46.847Z,691.88
2019-05-22T10:09:45.826Z,590.62
2019-05-22T10:10:45.816Z,540.00
2019-05-22T10:11:45.800Z,528.75
2019-05-22T10:12:45.811Z,511.88
2019-05-22T10:13:45.993Z,540.00
2019-05-22T10:14:46.022Z,675.00
2019-05-22T10:15:45.763Z,849.38
2019-05-22T10:16:45.755Z,607.50
2019-05-22T10:17:45.748Z,568.12
2019-05-22T10:18:45.906Z,669.38
2019-05-22T10:19:45.712Z,1946.25
2019-05-22T10:20:45.717Z,1102.50
2019-05-22T10:21:45.705Z,1035.00
2019-05-22T10:22:45.679Z,2053.12
2019-05-22T10:23:45.709Z,635.62
2019-05-22T10:24:49.860Z,1710.00
2019-05-22T10:25:45.665Z,1552.50
2019-05-22T10:26:45.643Z,894.38
2019-05-22T10:27:45.638Z,686.25
2019-05-22T10:28:45.631Z,641.25
2019-05-22T10:29:45.626Z,703.12
2019-05-22T10:30:45.601Z,725.62
2019-05-22T10:31:45.590Z,641.25
2019-05-22T10:32:45.578Z,624.38
2019-05-22T10:33:45.568Z,624.38
2019-05-22T10:34:45.567Z,590.62
2019-05-22T10:35:45.572Z,551.25
2019-05-22T10:36:45.544Z,517.50
2019-05-22T10:37:45.550Z,500.62
2019-05-22T10:38:45.598Z,556.88
2019-05-22T10:39:45.520Z,646.88
2019-05-22T10:40:45.492Z,635.62
2019-05-22T10:41:45.485Z,613.12
2019-05-22T10:42:45.569Z,596.25
2019-05-22T10:43:45.463Z,607.50
2019-05-22T10:44:45.469Z,562.50
2019-05-22T10:45:45.435Z,556.88
2019-05-22T10:46:45.426Z,562.50
2019-05-22T10:47:45.424Z,573.75
2019-05-22T10:48:45.419Z,489.38
2019-05-22T10:49:45.411Z,472.50
2019-05-22T10:50:45.389Z,495.00
2019-05-22T10:51:45.379Z,461.25
2019-05-22T10:52:45.368Z,444.38
2019-05-22T10:53:45.378Z,545.62
2019-05-22T10:54:45.365Z,630.00
2019-05-22T10:55:45.334Z,624.38
2019-05-22T10:56:45.344Z,551.25
2019-05-22T10:57:45.326Z,495.00
2019-05-22T10:58:45.333Z,489.38
2019-05-22T10:59:45.316Z,506.25
2019-05-22T11:00:45.277Z,523.12
2019-05-22T11:01:45.274Z,545.62
2019-05-22T11:02:45.275Z,551.25
2019-05-22T11:03:45.250Z,646.88
2019-05-22T11:04:45.252Z,686.25
2019-05-22T11:05:45.226Z,635.62
2019-05-22T11:06:45.211Z,607.50
2019-05-22T11:07:45.276Z,675.00
2019-05-22T11:08:45.202Z,607.50
2019-05-22T11:09:45.199Z,534.38
2019-05-22T11:10:45.522Z,461.25
2019-05-22T11:11:45.162Z,410.62
2019-05-22T11:12:45.147Z,405.00
2019-05-22T11:13:59.815Z,382.50
2019-05-22T11:14:46.152Z,382.50
2019-05-22T11:15:45.120Z,433.12
2019-05-22T11:16:45.105Z,523.12
2019-05-22T11:17:45.096Z,534.38
2019-05-22T11:18:45.081Z,517.50
2019-05-22T11:19:45.092Z,489.38
2019-05-22T11:20:45.066Z,500.62
2019-05-22T11:21:45.107Z,556.88
2019-05-22T11:22:45.048Z,500.62
2019-05-22T11:23:51.958Z,517.50
2019-05-22T11:24:46.030Z,551.25
2019-05-22T11:25:45.017Z,607.50
2019-05-22T11:26:44.998Z,607.50
2019-05-22T11:27:44.994Z,585.00
2019-05-22T11:28:44.978Z,556.88
2019-05-22T11:29:44.982Z,590.62
2019-05-22T11:30:44.967Z,534.38
2019-05-22T11:31:44.950Z,450.00
2019-05-22T11:32:44.957Z,393.75
2019-05-22T11:33:44.921Z,376.88
2019-05-22T11:34:45.017Z,405.00
2019-05-22T11:35:44.895Z,382.50
2019-05-22T11:36:44.888Z,371.25
2019-05-22T11:37:44.916Z,405.00
2019-05-22T11:38:44.864Z,405.00
2019-05-22T11:39:45.216Z,382.50
2019-05-22T11:40:44.849Z,365.62
2019-05-22T11:41:44.839Z,376.88
2019-05-22T11:42:44.837Z,371.25
2019-05-22T11:43:44.810Z,376.88
2019-05-22T11:44:44.838Z,376.88
2019-05-22T11:45:45.505Z,388.12
2019-05-22T11:46:44.785Z,388.12
2019-05-22T11:47:44.769Z,393.75
2019-05-22T11:48:44.758Z,393.75
2019-05-22T11:49:44.774Z,382.50
2019-05-22T11:50:44.734Z,382.50
2019-05-22T11:51:44.729Z,393.75
2019-05-22T11:52:44.721Z,393.75
2019-05-22T11:53:44.707Z,388.12
2019-05-22T11:54:44.695Z,343.12
2019-05-22T11:55:46.269Z,343.12
2019-05-22T11:56:44.688Z,354.38
2019-05-22T11:57:44.669Z,343.12
2019-05-22T11:58:44.656Z,320.62
2019-05-22T11:59:44.645Z,348.75
2019-05-22T12:00:44.648Z,365.62
2019-05-22T12:01:44.623Z,371.25
2019-05-22T12:02:44.610Z,365.62
2019-05-22T12:03:44.614Z,326.25
2019-05-22T12:04:48.518Z,309.38
2019-05-22T12:05:44.590Z,315.00
2019-05-22T12:06:44.572Z,326.25
2019-05-22T12:07:44.551Z,331.88
2019-05-22T12:08:44.556Z,331.88
2019-05-22T12:09:44.530Z,331.88
2019-05-22T12:10:44.723Z,348.75
2019-05-22T12:11:44.511Z,337.50
2019-05-22T12:12:44.520Z,331.88
2019-05-22T12:13:44.487Z,337.50
2019-05-22T12:14:44.479Z,331.88
2019-05-22T12:15:44.480Z,309.38
2019-05-22T12:16:44.453Z,275.62
2019-05-22T12:17:44.449Z,247.50
2019-05-22T12:18:44.439Z,241.88
2019-05-22T12:19:44.422Z,275.62
2019-05-22T12:20:44.439Z,281.25
2019-05-22T12:21:44.401Z,286.88
2019-05-22T12:22:44.396Z,281.25
2019-05-22T12:23:44.446Z,275.62
2019-05-22T12:24:44.373Z,275.62
2019-05-22T12:25:44.381Z,270.00
2019-05-22T12:26:44.350Z,270.00
2019-05-22T12:27:44.345Z,241.88
2019-05-22T12:28:44.329Z,275.62
2019-05-22T12:29:44.317Z,292.50
2019-05-22T12:30:44.344Z,298.12
2019-05-22T12:31:44.309Z,292.50
2019-05-22T12:32:44.287Z,281.25
2019-05-22T12:33:44.268Z,275.62
2019-05-22T12:34:44.262Z,286.88
2019-05-22T12:35:44.272Z,281.25
2019-05-22T12:36:44.244Z,275.62
2019-05-22T12:37:44.230Z,275.62
2019-05-22T12:38:44.239Z,264.38
2019-05-22T12:39:44.205Z,258.75
2019-05-22T12:40:44.209Z,270.00
2019-05-22T12:41:44.199Z,258.75
2019-05-22T12:42:44.189Z,270.00
2019-05-22T12:43:45.144Z,275.62
2019-05-22T12:44:44.155Z,275.62
2019-05-22T12:45:44.170Z,292.50
2019-05-22T12:46:44.151Z,286.88
2019-05-22T12:47:44.276Z,286.88
2019-05-22T12:48:44.112Z,286.88
2019-05-22T12:49:44.100Z,286.88